Time;durP1;ratioP1;P1;durP2;ratioP2;P2;SDS_P1;SDS_P2;PMS_P1;PMS_P2;Temp;Humidity;BMP_temperature;BMP_pressure;BME280_temperature;BME280_humidity;BME280_pressure;Samples;Min_cycle;Max_cycle;Signal;HPM_P1;HPM_P2
2022/04/03 00:01:09;;;;;;;;;16.50;16.00;;;;;;;;5010775;28;51171;-72
2022/04/03 00:03:35;;;;;;;;;19.25;18.00;;;;;;;;5017288;28;51067;-72
2022/04/03 00:06:00;;;;;;;;;18.50;16.50;;;;;;;;5018431;28;51119;-73
2022/04/03 00:08:27;;;;;;;;;22.75;19.25;;;;;;;;5011518;28;51703;-72
2022/04/03 00:10:53;;;;;;;;;16.75;16.25;;;;;;;;5022892;28;50949;-73
2022/04/03 00:13:18;;;;;;;;;17.75;17.75;;;;;;;;5015352;28;51322;-73
2022/04/03 00:15:43;;;;;;;;;19.00;18.50;;;;;;;;5013823;28;51039;-73
2022/04/03 00:18:09;;;;;;;;;19.25;19.25;;;;;;;;5010151;28;52334;-73
2022/04/03 00:20:38;;;;;;;;;16.50;16.25;;;;;;;;5013274;28;51054;-73
2022/04/03 00:23:03;;;;;;;;;20.25;19.00;;;;;;;;5021483;28;51086;-73
2022/04/03 00:25:28;;;;;;;;;19.00;17.25;;;;;;;;5018214;28;52298;-72
2022/04/03 00:27:53;;;;;;;;;18.75;17.50;;;;;;;;5013201;28;51235;-72
2022/04/03 00:30:19;;;;;;;;;18.00;17.75;;;;;;;;5013743;28;51213;-73
2022/04/03 00:32:44;;;;;;;;;17.00;16.00;;;;;;;;5012258;28;51007;-72
2022/04/03 00:35:09;;;;;;;;;17.25;16.00;;;;;;;;5015974;28;51311;-73
2022/04/03 00:37:35;;;;;;;;;17.25;16.75;;;;;;;;5012082;28;50999;-72
2022/04/03 00:40:00;;;;;;;;;16.50;16.00;;;;;;;;5013304;28;51441;-72
2022/04/03 00:42:26;;;;;;;;;17.25;15.75;;;;;;;;5022309;28;50955;-72
2022/04/03 00:44:51;;;;;;;;;15.75;14.25;;;;;;;;5012540;28;51493;-73
2022/04/03 00:47:17;;;;;;;;;16.25;15.50;;;;;;;;5018232;28;54081;-73
2022/04/03 00:49:42;;;;;;;;;14.00;12.75;;;;;;;;5018265;28;51201;-72
2022/04/03 00:52:08;;;;;;;;;15.50;15.00;;;;;;;;5027638;28;51123;-73
2022/04/03 00:54:34;;;;;;;;;17.75;16.25;;;;;;;;5023526;28;51368;-71
2022/04/03 00:56:59;;;;;;;;;14.75;14.75;;;;;;;;5013146;28;51173;-72
2022/04/03 00:59:25;;;;;;;;;18.25;16.75;;;;;;;;5023405;28;50995;-71
2022/04/03 01:01:50;;;;;;;;;16.00;15.25;;;;;;;;5007715;28;51180;-71
2022/04/03 01:04:15;;;;;;;;;15.50;14.50;;;;;;;;5012193;28;51130;-72
2022/04/03 01:06:41;;;;;;;;;17.25;16.25;;;;;;;;5012186;28;52257;-72
2022/04/03 01:09:06;;;;;;;;;15.25;15.00;;;;;;;;5011505;28;50973;-72
2022/04/03 01:11:31;;;;;;;;;16.25;16.25;;;;;;;;5012560;28;50991;-72
2022/04/03 01:13:57;;;;;;;;;18.25;18.25;;;;;;;;5015450;28;51082;-72
2022/04/03 01:16:22;;;;;;;;;18.00;14.75;;;;;;;;5010515;28;51223;-72
2022/04/03 01:18:48;;;;;;;;;18.25;16.00;;;;;;;;5016047;28;51127;-72
2022/04/03 01:21:14;;;;;;;;;19.25;18.25;;;;;;;;5014583;28;50844;-71
2022/04/03 01:23:39;;;;;;;;;15.00;14.75;;;;;;;;5023621;28;51333;-72
2022/04/03 01:26:05;;;;;;;;;14.50;13.00;;;;;;;;5020428;28;51941;-73
2022/04/03 01:28:30;;;;;;;;;14.75;14.75;;;;;;;;5012600;28;51206;-72
2022/04/03 01:30:55;;;;;;;;;16.50;15.00;;;;;;;;5015831;28;51232;-72
2022/04/03 01:33:21;;;;;;;;;15.50;15.25;;;;;;;;5014438;28;51046;-72
2022/04/03 01:35:46;;;;;;;;;18.50;18.00;;;;;;;;5024376;28;51802;-72
2022/04/03 01:38:11;;;;;;;;;17.25;17.25;;;;;;;;5003639;28;51264;-72
2022/04/03 01:40:37;;;;;;;;;16.00;15.00;;;;;;;;5013642;28;51124;-73
2022/04/03 01:43:03;;;;;;;;;16.75;14.50;;;;;;;;5015123;28;51150;-73
2022/04/03 01:45:28;;;;;;;;;18.50;16.25;;;;;;;;5024244;28;51041;-73
2022/04/03 01:47:53;;;;;;;;;18.00;15.00;;;;;;;;5017148;28;51075;-72
2022/04/03 01:50:18;;;;;;;;;16.00;15.00;;;;;;;;5027153;28;52025;-72
2022/04/03 01:52:44;;;;;;;;;16.00;15.50;;;;;;;;5019237;28;51094;-73
2022/04/03 01:55:09;;;;;;;;;16.00;13.75;;;;;;;;5014381;28;51277;-72
2022/04/03 01:57:34;;;;;;;;;16.75;15.00;;;;;;;;5018172;28;50936;-72
2022/04/03 01:59:59;;;;;;;;;14.50;14.50;;;;;;;;5018056;28;51151;-73
2022/04/03 02:02:24;;;;;;;;;15.00;15.00;;;;;;;;5009104;28;51124;-71
2022/04/03 02:04:50;;;;;;;;;17.00;16.25;;;;;;;;5022335;28;51693;-71
2022/04/03 02:07:15;;;;;;;;;15.75;15.25;;;;;;;;5017636;28;51409;-72
2022/04/03 02:09:40;;;;;;;;;15.75;15.25;;;;;;;;5029855;28;51294;-72
2022/04/03 02:12:06;;;;;;;;;14.50;14.50;;;;;;;;5009171;28;51265;-72
2022/04/03 02:14:31;;;;;;;;;16.00;15.25;;;;;;;;5010454;28;51512;-72
2022/04/03 02:16:57;;;;;;;;;17.75;16.25;;;;;;;;5016229;28;51174;-72
2022/04/03 02:19:23;;;;;;;;;20.75;18.00;;;;;;;;5028827;28;51116;-71
2022/04/03 02:21:48;;;;;;;;;17.75;16.25;;;;;;;;5013138;28;51197;-71
2022/04/03 02:24:14;;;;;;;;;15.00;14.75;;;;;;;;5022289;28;50995;-72
2022/04/03 02:26:39;;;;;;;;;17.50;14.50;;;;;;;;5010166;28;50876;-73
2022/04/03 02:29:04;;;;;;;;;15.00;14.00;;;;;;;;5009550;28;51125;-72
2022/04/03 02:31:30;;;;;;;;;13.25;11.50;;;;;;;;5018471;28;51307;-73
2022/04/03 02:33:55;;;;;;;;;22.50;19.00;;;;;;;;5017102;28;51798;-72
2022/04/03 02:36:20;;;;;;;;;15.75;15.00;;;;;;;;5022087;28;50901;-72
2022/04/03 02:38:45;;;;;;;;;15.75;15.00;;;;;;;;5010364;28;51127;-72
2022/04/03 02:41:12;;;;;;;;;13.00;13.00;;;;;;;;5012651;28;50891;-71
2022/04/03 02:43:37;;;;;;;;;16.75;15.00;;;;;;;;5011764;28;51400;-71
2022/04/03 02:46:02;;;;;;;;;20.50;18.75;;;;;;;;5027028;28;51164;-71
2022/04/03 02:48:28;;;;;;;;;14.00;13.00;;;;;;;;5007912;28;51298;-71
2022/04/03 02:50:53;;;;;;;;;15.00;15.00;;;;;;;;5027104;28;51377;-72
2022/04/03 02:53:18;;;;;;;;;19.00;14.50;;;;;;;;5010317;28;51979;-72
2022/04/03 02:55:44;;;;;;;;;19.00;16.00;;;;;;;;5014155;28;51113;-72
2022/04/03 02:58:09;;;;;;;;;18.00;15.00;;;;;;;;5015682;28;51357;-72
2022/04/03 03:00:35;;;;;;;;;17.50;15.00;;;;;;;;5021710;28;51178;-72
2022/04/03 03:03:00;;;;;;;;;13.75;13.75;;;;;;;;4999407;28;52070;-72
2022/04/03 03:05:26;;;;;;;;;8.50;7.00;;;;;;;;5017871;28;51185;-72
2022/04/03 03:07:52;;;;;;;;;14.25;14.25;;;;;;;;5014839;28;51203;-72
2022/04/03 03:10:18;;;;;;;;;17.75;14.75;;;;;;;;5012415;28;52367;-72
2022/04/03 03:12:44;;;;;;;;;12.75;10.50;;;;;;;;5016315;28;51313;-72
2022/04/03 03:15:10;;;;;;;;;15.25;14.25;;;;;;;;5019989;28;50972;-71
2022/04/03 03:17:35;;;;;;;;;16.00;14.00;;;;;;;;5011227;28;51239;-71
2022/04/03 03:20:00;;;;;;;;;16.50;15.75;;;;;;;;5015873;28;51106;-71
2022/04/03 03:22:25;;;;;;;;;16.75;13.75;;;;;;;;5013564;28;51738;-71
2022/04/03 03:24:51;;;;;;;;;14.25;13.50;;;;;;;;5022382;28;51183;-71
2022/04/03 03:27:16;;;;;;;;;14.00;14.00;;;;;;;;5018208;28;51228;-72
2022/04/03 03:29:41;;;;;;;;;15.00;15.00;;;;;;;;5020219;28;51274;-72
2022/04/03 03:32:07;;;;;;;;;12.25;12.25;;;;;;;;5018778;28;51863;-72
2022/04/03 03:34:34;;;;;;;;;17.75;15.50;;;;;;;;5019924;28;51352;-72
2022/04/03 03:36:59;;;;;;;;;15.25;13.50;;;;;;;;5018727;28;50980;-72
2022/04/03 03:39:26;;;;;;;;;14.00;14.00;;;;;;;;5027327;28;51435;-72
2022/04/03 03:41:52;;;;;;;;;14.50;13.50;;;;;;;;5009370;28;53840;-73
2022/04/03 03:44:17;;;;;;;;;14.75;14.00;;;;;;;;5017315;28;51002;-71
2022/04/03 03:46:42;;;;;;;;;13.75;13.75;;;;;;;;5008184;28;51063;-72
2022/04/03 03:49:08;;;;;;;;;12.50;12.25;;;;;;;;5013900;28;50877;-72
2022/04/03 03:51:34;;;;;;;;;18.00;17.25;;;;;;;;5014274;28;51140;-73
2022/04/03 03:53:59;;;;;;;;;14.25;14.25;;;;;;;;5009136;28;51111;-71
2022/04/03 03:56:25;;;;;;;;;14.25;14.25;;;;;;;;5017277;28;51308;-72
2022/04/03 03:58:50;;;;;;;;;16.25;13.50;;;;;;;;5010192;28;51225;-72
2022/04/03 04:01:16;;;;;;;;;14.75;14.00;;;;;;;;5012246;28;52785;-73
2022/04/03 04:03:41;;;;;;;;;16.75;14.75;;;;;;;;5012454;28;50905;-73
2022/04/03 04:06:06;;;;;;;;;13.25;13.25;;;;;;;;5024407;28;51116;-73
2022/04/03 04:08:32;;;;;;;;;13.25;13.00;;;;;;;;5008533;28;51094;-73
2022/04/03 04:10:58;;;;;;;;;17.75;14.50;;;;;;;;5001156;28;50914;-72
2022/04/03 04:13:23;;;;;;;;;15.25;13.75;;;;;;;;5010047;28;51027;-72
2022/04/03 04:15:48;;;;;;;;;15.50;13.25;;;;;;;;5013588;28;50984;-72
2022/04/03 04:18:13;;;;;;;;;14.00;14.00;;;;;;;;5011585;28;51352;-72
2022/04/03 04:20:39;;;;;;;;;15.00;15.00;;;;;;;;5014378;28;52122;-72
2022/04/03 04:23:04;;;;;;;;;13.25;11.50;;;;;;;;5013124;28;51171;-72
2022/04/03 04:25:31;;;;;;;;;13.00;13.00;;;;;;;;5017238;28;51016;-71
2022/04/03 04:27:57;;;;;;;;;13.75;12.50;;;;;;;;5008041;28;51131;-71
2022/04/03 04:30:22;;;;;;;;;11.25;10.25;;;;;;;;5012102;28;54072;-72
2022/04/03 04:32:48;;;;;;;;;17.25;16.00;;;;;;;;5008316;28;51072;-72
2022/04/03 04:35:13;;;;;;;;;12.50;10.50;;;;;;;;5012697;28;50854;-72
2022/04/03 04:37:40;;;;;;;;;16.75;14.75;;;;;;;;5010716;28;50848;-72
2022/04/03 04:40:05;;;;;;;;;10.75;10.75;;;;;;;;5012857;28;51690;-72
2022/04/03 04:42:31;;;;;;;;;13.25;12.75;;;;;;;;5009226;28;51254;-71
2022/04/03 04:44:56;;;;;;;;;11.00;11.00;;;;;;;;5013534;28;51059;-71
2022/04/03 04:47:21;;;;;;;;;12.50;11.50;;;;;;;;5010314;28;51215;-72
2022/04/03 04:49:46;;;;;;;;;13.75;13.75;;;;;;;;5019295;28;51049;-72
2022/04/03 04:52:12;;;;;;;;;12.75;12.50;;;;;;;;5002434;28;51194;-72
2022/04/03 04:54:38;;;;;;;;;14.25;14.00;;;;;;;;5016094;28;51002;-72
2022/04/03 04:57:03;;;;;;;;;10.25;10.00;;;;;;;;5009534;28;52653;-72
2022/04/03 04:59:29;;;;;;;;;14.75;12.25;;;;;;;;5015120;28;54075;-72
2022/04/03 05:01:59;;;;;;;;;12.25;12.25;;;;;;;;5010056;28;53027;-72
2022/04/03 05:04:24;;;;;;;;;10.50;10.50;;;;;;;;5010822;28;51265;-72
2022/04/03 05:06:50;;;;;;;;;12.50;12.50;;;;;;;;5012376;28;51181;-72
2022/04/03 05:09:15;;;;;;;;;12.25;12.25;;;;;;;;5016568;28;51054;-72
2022/04/03 05:11:41;;;;;;;;;11.75;10.75;;;;;;;;5006900;28;51001;-72
2022/04/03 05:14:06;;;;;;;;;15.00;14.50;;;;;;;;5011539;28;51032;-71
2022/04/03 05:16:31;;;;;;;;;13.75;13.25;;;;;;;;5011503;28;51400;-73
2022/04/03 05:18:57;;;;;;;;;16.00;11.25;;;;;;;;5008632;28;51004;-73
2022/04/03 05:21:22;;;;;;;;;13.00;13.00;;;;;;;;5020743;28;51060;-73
2022/04/03 05:23:49;;;;;;;;;12.00;12.00;;;;;;;;5010661;28;51022;-73
2022/04/03 05:26:15;;;;;;;;;9.25;9.00;;;;;;;;5008574;28;51183;-73
2022/04/03 05:28:41;;;;;;;;;10.50;10.00;;;;;;;;5009832;28;52047;-73
2022/04/03 05:31:06;;;;;;;;;40.25;35.50;;;;;;;;5010577;28;51039;-73
2022/04/03 05:33:32;;;;;;;;;13.00;12.25;;;;;;;;5010314;28;51048;-73
2022/04/03 05:35:57;;;;;;;;;13.00;12.00;;;;;;;;5014341;28;51309;-72
2022/04/03 05:38:23;;;;;;;;;12.25;10.50;;;;;;;;5012417;28;51883;-73
2022/04/03 05:40:48;;;;;;;;;12.00;12.00;;;;;;;;5014299;28;50834;-72
2022/04/03 05:43:13;;;;;;;;;13.50;12.00;;;;;;;;5010035;28;51063;-71
2022/04/03 05:45:38;;;;;;;;;16.25;16.25;;;;;;;;5017124;28;51010;-72
2022/04/03 05:48:07;;;;;;;;;17.50;15.25;;;;;;;;5012406;28;51088;-72
2022/04/03 05:50:33;;;;;;;;;12.00;11.75;;;;;;;;5010620;28;51199;-73
2022/04/03 05:52:58;;;;;;;;;14.00;12.00;;;;;;;;5005091;28;51087;-73
2022/04/03 05:55:23;;;;;;;;;17.00;16.25;;;;;;;;5012082;28;51096;-73
2022/04/03 05:57:50;;;;;;;;;13.00;12.50;;;;;;;;5011941;28;51676;-73
2022/04/03 06:00:16;;;;;;;;;12.50;12.25;;;;;;;;5011750;28;51244;-73
2022/04/03 06:02:41;;;;;;;;;11.00;10.50;;;;;;;;5009180;28;50996;-71
2022/04/03 06:05:07;;;;;;;;;14.25;14.00;;;;;;;;5014929;28;51158;-74
2022/04/03 06:07:32;;;;;;;;;16.25;15.00;;;;;;;;5011292;28;52945;-74
2022/04/03 06:09:58;;;;;;;;;12.25;11.50;;;;;;;;5010559;28;51004;-72
2022/04/03 06:12:23;;;;;;;;;11.75;11.00;;;;;;;;5007451;28;50827;-74
2022/04/03 06:14:49;;;;;;;;;13.25;12.50;;;;;;;;5024057;28;51319;-73
2022/04/03 06:17:14;;;;;;;;;13.75;13.50;;;;;;;;5009786;28;50828;-72
2022/04/03 06:19:40;;;;;;;;;13.50;12.75;;;;;;;;5011892;28;52318;-72
2022/04/03 06:22:05;;;;;;;;;12.50;12.50;;;;;;;;5008971;28;51728;-72
2022/04/03 06:24:30;;;;;;;;;14.00;12.25;;;;;;;;5021072;28;51368;-71
2022/04/03 06:26:55;;;;;;;;;16.00;16.00;;;;;;;;5013421;28;51968;-71
2022/04/03 06:29:20;;;;;;;;;13.25;13.25;;;;;;;;5013196;28;51174;-72
2022/04/03 06:31:45;;;;;;;;;11.50;11.00;;;;;;;;5011721;28;51024;-71
2022/04/03 06:34:11;;;;;;;;;13.25;13.00;;;;;;;;5018653;28;51097;-71
2022/04/03 06:36:36;;;;;;;;;13.00;11.50;;;;;;;;5013094;28;51703;-73
2022/04/03 06:39:01;;;;;;;;;14.25;13.50;;;;;;;;5025315;28;50999;-73
2022/04/03 06:41:26;;;;;;;;;13.75;13.00;;;;;;;;5018668;28;52662;-74
2022/04/03 06:43:52;;;;;;;;;16.00;14.50;;;;;;;;5024618;28;51399;-73
2022/04/03 06:46:18;;;;;;;;;11.25;11.25;;;;;;;;5015774;28;51274;-72
2022/04/03 06:48:43;;;;;;;;;16.75;15.75;;;;;;;;5015155;28;51079;-71
2022/04/03 06:51:08;;;;;;;;;12.25;12.00;;;;;;;;5015866;28;51121;-73
2022/04/03 06:53:34;;;;;;;;;18.25;14.00;;;;;;;;5014782;28;51102;-74
2022/04/03 06:55:59;;;;;;;;;13.50;12.50;;;;;;;;5016154;28;51070;-70
2022/04/03 06:58:24;;;;;;;;;14.00;13.00;;;;;;;;5002237;28;51218;-69
2022/04/03 07:00:50;;;;;;;;;14.00;12.75;;;;;;;;5014677;28;51326;-69
2022/04/03 07:03:15;;;;;;;;;12.50;12.50;;;;;;;;5008105;28;51202;-70
2022/04/03 07:05:40;;;;;;;;;15.00;14.00;;;;;;;;5014653;28;51127;-70
2022/04/03 07:08:06;;;;;;;;;12.25;12.25;;;;;;;;5011561;28;51193;-70
2022/04/03 07:10:32;;;;;;;;;15.50;14.75;;;;;;;;5022890;28;51314;-69
2022/04/03 07:12:59;;;;;;;;;13.00;12.50;;;;;;;;5009977;28;51245;-73
2022/04/03 07:15:24;;;;;;;;;13.50;13.25;;;;;;;;5004762;28;53078;-68
2022/04/03 07:17:50;;;;;;;;;12.25;11.25;;;;;;;;5000891;28;51444;-68
2022/04/03 07:20:15;;;;;;;;;11.75;11.75;;;;;;;;5007472;28;52161;-68
2022/04/03 07:22:44;;;;;;;;;10.75;10.00;;;;;;;;5012249;28;51229;-68
2022/04/03 07:25:13;;;;;;;;;12.50;12.50;;;;;;;;5010279;28;51702;-68
2022/04/03 07:27:38;;;;;;;;;10.00;9.75;;;;;;;;5005832;28;51079;-67
2022/04/03 07:30:05;;;;;;;;;11.50;11.25;;;;;;;;5005041;28;51191;-68
2022/04/03 07:32:31;;;;;;;;;10.00;9.50;;;;;;;;5011517;28;51222;-67
2022/04/03 07:34:56;;;;;;;;;11.00;11.00;;;;;;;;5012456;28;53792;-69
2022/04/03 07:37:22;;;;;;;;;13.75;11.75;;;;;;;;5008615;28;51134;-69
2022/04/03 07:39:47;;;;;;;;;9.00;9.00;;;;;;;;5008916;28;51056;-69
2022/04/03 07:42:12;;;;;;;;;13.25;12.75;;;;;;;;5011560;28;51259;-68
2022/04/03 07:44:37;;;;;;;;;13.00;13.00;;;;;;;;5007160;28;52040;-68
2022/04/03 07:47:03;;;;;;;;;16.50;14.50;;;;;;;;5010995;28;51094;-70
2022/04/03 07:49:29;;;;;;;;;15.50;14.75;;;;;;;;5010981;28;51129;-68
2022/04/03 07:51:54;;;;;;;;;12.25;12.25;;;;;;;;5007882;28;51277;-68
2022/04/03 07:54:19;;;;;;;;;12.75;12.75;;;;;;;;5007537;28;51664;-74
2022/04/03 07:56:45;;;;;;;;;14.00;13.00;;;;;;;;5009634;28;51088;-69
2022/04/03 07:59:10;;;;;;;;;11.67;11.33;;;;;;;;5006086;28;51154;-53
2022/04/03 08:01:35;;;;;;;;;11.50;11.25;;;;;;;;5010132;28;51183;-53
2022/04/03 08:04:01;;;;;;;;;9.00;9.00;;;;;;;;5013200;28;52369;-55
2022/04/03 08:06:26;;;;;;;;;11.00;9.67;;;;;;;;5011078;28;51117;-54
2022/04/03 08:08:52;;;;;;;;;8.67;7.33;;;;;;;;5013388;28;51401;-61
2022/04/03 08:11:18;;;;;;;;;12.67;12.33;;;;;;;;5009600;28;51077;-62
2022/04/03 08:13:43;;;;;;;;;13.67;12.33;;;;;;;;5009287;28;53335;-61
2022/04/03 08:16:08;;;;;;;;;10.00;10.00;;;;;;;;5001449;28;51151;-62
2022/04/03 08:18:35;;;;;;;;;10.67;10.00;;;;;;;;5007405;28;50876;-61
2022/04/03 08:21:00;;;;;;;;;11.00;11.00;;;;;;;;5005253;28;51216;-61
2022/04/03 08:23:25;;;;;;;;;9.00;8.67;;;;;;;;5008696;28;51101;-61
2022/04/03 08:25:50;;;;;;;;;8.33;8.00;;;;;;;;5011688;28;51326;-62
2022/04/03 08:28:17;;;;;;;;;8.00;8.00;;;;;;;;5008928;28;50996;-63
2022/04/03 08:30:42;;;;;;;;;9.67;8.67;;;;;;;;5011714;28;51096;-63
2022/04/03 08:33:09;;;;;;;;;10.00;10.00;;;;;;;;5007991;28;51634;-61
2022/04/03 08:35:38;;;;;;;;;8.67;8.67;;;;;;;;5013334;28;51065;-63
2022/04/03 08:38:04;;;;;;;;;9.00;8.00;;;;;;;;5010547;28;50979;-63
2022/04/03 08:40:30;;;;;;;;;9.00;8.00;;;;;;;;5013130;28;51049;-63
2022/04/03 08:42:56;;;;;;;;;7.00;6.67;;;;;;;;5008067;28;51333;-63
2022/04/03 08:45:22;;;;;;;;;9.33;8.00;;;;;;;;5012605;28;51176;-62
2022/04/03 08:47:49;;;;;;;;;9.67;8.67;;;;;;;;5004848;28;51013;-63
2022/04/03 08:50:15;;;;;;;;;7.00;7.00;;;;;;;;5012439;28;50956;-62
2022/04/03 08:52:44;;;;;;;;;9.33;9.33;;;;;;;;5008543;28;52135;-63
2022/04/03 08:55:09;;;;;;;;;8.67;8.67;;;;;;;;5009159;28;52056;-63
2022/04/03 08:57:35;;;;;;;;;7.00;7.00;;;;;;;;5002957;28;51024;-62
2022/04/03 09:00:00;;;;;;;;;7.33;7.00;;;;;;;;5011165;28;50831;-63
2022/04/03 09:02:25;;;;;;;;;8.00;8.00;;;;;;;;5007226;28;51855;-62
2022/04/03 09:04:51;;;;;;;;;5.00;5.00;;;;;;;;5010936;28;51092;-62
2022/04/03 09:07:17;;;;;;;;;7.67;6.67;;;;;;;;5007876;28;50845;-63
2022/04/03 09:09:43;;;;;;;;;8.00;8.00;;;;;;;;5007430;28;51513;-63
2022/04/03 09:12:13;;;;;;;;;3.67;3.67;;;;;;;;5009994;28;51184;-64
2022/04/03 09:14:54;;;;;;;;;7.33;7.33;;;;;;;;5011197;28;50898;-63
2022/04/03 09:17:32;;;;;;;;;5.67;5.00;;;;;;;;5010996;28;51266;-64
2022/04/03 09:20:05;;;;;;;;;6.00;5.00;;;;;;;;5012736;28;51305;-62
2022/04/03 09:22:32;;;;;;;;;5.00;5.00;;;;;;;;5001528;28;51907;-62
2022/04/03 09:24:58;;;;;;;;;5.67;5.00;;;;;;;;5008592;28;51035;-64
2022/04/03 09:27:23;;;;;;;;;6.00;5.00;;;;;;;;5010930;28;51234;-64
2022/04/03 09:29:59;;;;;;;;;6.00;6.00;;;;;;;;5012830;28;51005;-63
2022/04/03 09:32:28;;;;;;;;;6.33;5.33;;;;;;;;5011940;28;52033;-64
2022/04/03 09:34:57;;;;;;;;;5.33;5.00;;;;;;;;5012014;28;51215;-62
2022/04/03 09:37:23;;;;;;;;;6.67;4.00;;;;;;;;5012287;28;51096;-63
2022/04/03 09:39:48;;;;;;;;;5.00;3.33;;;;;;;;5012199;28;51246;-63
2022/04/03 09:42:15;;;;;;;;;4.67;4.00;;;;;;;;5010264;28;52774;-64
2022/04/03 09:44:42;;;;;;;;;4.00;4.00;;;;;;;;5010897;28;50831;-63
2022/04/03 09:47:11;;;;;;;;;4.67;4.00;;;;;;;;5010411;28;51119;-63
2022/04/03 09:49:37;;;;;;;;;1.67;1.67;;;;;;;;5004139;28;51277;-63
2022/04/03 09:52:02;;;;;;;;;2.00;2.00;;;;;;;;5011579;28;51780;-63
2022/04/03 09:54:27;;;;;;;;;3.67;3.00;;;;;;;;5010698;28;51108;-63
2022/04/03 09:56:52;;;;;;;;;2.00;1.50;;;;;;;;5010472;28;51143;-63
2022/04/03 09:59:18;;;;;;;;;2.00;2.00;;;;;;;;5011984;28;51405;-63
2022/04/03 10:01:45;;;;;;;;;2.67;1.33;;;;;;;;5003752;28;53759;-63
2022/04/03 10:04:11;;;;;;;;;2.33;1.67;;;;;;;;4995553;28;50825;-64
2022/04/03 10:06:38;;;;;;;;;1.33;1.33;;;;;;;;5000288;28;50796;-64
2022/04/03 10:09:04;;;;;;;;;2.00;2.00;;;;;;;;5014123;28;51207;-63
2022/04/03 10:11:30;;;;;;;;;2.00;2.00;;;;;;;;5014576;28;51114;-64
2022/04/03 10:13:56;;;;;;;;;3.00;2.00;;;;;;;;5014983;28;51033;-62
2022/04/03 10:16:22;;;;;;;;;2.00;2.00;;;;;;;;5029661;28;51122;-63
2022/04/03 10:18:48;;;;;;;;;1.00;1.00;;;;;;;;5012428;28;51262;-62
2022/04/03 10:21:21;;;;;;;;;2.00;2.00;;;;;;;;5012604;28;51208;-63
2022/04/03 10:23:46;;;;;;;;;3.33;2.67;;;;;;;;5014321;28;51222;-63
2022/04/03 10:26:15;;;;;;;;;1.33;1.33;;;;;;;;5014834;28;51351;-63
2022/04/03 10:28:44;;;;;;;;;2.67;2.67;;;;;;;;5018079;28;51055;-61
2022/04/03 10:31:14;;;;;;;;;2.00;1.67;;;;;;;;5022426;28;50869;-67
2022/04/03 10:33:40;;;;;;;;;2.67;2.67;;;;;;;;5015402;28;50973;-63
2022/04/03 10:36:09;;;;;;;;;3.33;3.00;;;;;;;;5013988;28;51101;-64
2022/04/03 10:38:39;;;;;;;;;2.00;2.00;;;;;;;;5014631;28;50997;-64
2022/04/03 10:41:06;;;;;;;;;5.00;5.00;;;;;;;;5014062;28;51087;-64
2022/04/03 10:43:36;;;;;;;;;4.00;4.00;;;;;;;;5012103;28;51129;-62
2022/04/03 10:46:01;;;;;;;;;3.00;3.00;;;;;;;;5013944;28;51085;-65
2022/04/03 10:48:28;;;;;;;;;2.67;2.33;;;;;;;;5013896;28;50980;-63
2022/04/03 10:51:00;;;;;;;;;5.00;4.67;;;;;;;;5019473;28;51059;-62
2022/04/03 10:53:27;;;;;;;;;1.00;1.00;;;;;;;;5013057;28;51078;-62
2022/04/03 10:55:54;;;;;;;;;4.67;4.00;;;;;;;;5013421;28;51377;-63
2022/04/03 10:58:19;;;;;;;;;1.00;0.00;;;;;;;;5023774;28;51056;-63
2022/04/03 11:00:45;;;;;;;;;4.00;4.00;;;;;;;;5014352;28;52801;-63
2022/04/03 11:03:13;;;;;;;;;4.00;4.00;;;;;;;;5028047;28;51047;-62
2022/04/03 11:05:39;;;;;;;;;7.00;6.00;;;;;;;;5013079;28;51203;-63
2022/04/03 11:08:04;;;;;;;;;5.00;5.00;;;;;;;;5007309;28;51381;-63
2022/04/03 11:10:48;;;;;;;;;4.00;4.00;;;;;;;;5011867;28;52702;-62
2022/04/03 11:13:14;;;;;;;;;5.00;5.00;;;;;;;;5012970;28;51144;-63
2022/04/03 11:16:03;;;;;;;;;4.00;4.00;;;;;;;;5011825;28;51154;-63
2022/04/03 11:18:29;;;;;;;;;6.00;6.00;;;;;;;;5000647;28;51144;-64
2022/04/03 11:21:07;;;;;;;;;5.33;4.33;;;;;;;;5010973;28;52232;-64
2022/04/03 11:23:34;;;;;;;;;4.67;4.67;;;;;;;;5011900;28;51096;-64
2022/04/03 11:26:00;;;;;;;;;5.00;5.00;;;;;;;;5011959;28;51009;-64
2022/04/03 11:28:26;;;;;;;;;4.33;4.00;;;;;;;;5010447;28;50993;-63
2022/04/03 11:30:52;;;;;;;;;4.33;4.33;;;;;;;;5007032;28;52476;-64
2022/04/03 11:33:17;;;;;;;;;4.33;3.33;;;;;;;;5011983;28;50945;-64
2022/04/03 11:35:44;;;;;;;;;2.67;2.67;;;;;;;;5013932;28;51087;-63
2022/04/03 11:38:10;;;;;;;;;5.00;5.00;;;;;;;;5013892;28;51225;-64
2022/04/03 11:40:35;;;;;;;;;6.00;4.67;;;;;;;;5013172;28;52176;-63
2022/04/03 11:43:07;;;;;;;;;5.33;5.33;;;;;;;;5013498;28;50966;-64
2022/04/03 11:45:33;;;;;;;;;5.33;4.67;;;;;;;;5011918;28;51101;-64
2022/04/03 11:48:27;;;;;;;;;5.00;5.00;;;;;;;;5013272;28;51096;-65
2022/04/03 11:51:05;;;;;;;;;5.00;5.00;;;;;;;;5012442;28;53199;-65
2022/04/03 11:53:31;;;;;;;;;3.00;3.00;;;;;;;;5011340;28;51203;-64
2022/04/03 11:56:03;;;;;;;;;3.00;3.00;;;;;;;;5010449;28;51171;-64
2022/04/03 11:58:32;;;;;;;;;4.00;3.00;;;;;;;;4996400;28;52464;-63
2022/04/03 12:00:58;;;;;;;;;6.00;5.00;;;;;;;;4996663;28;52145;-64
2022/04/03 12:03:27;;;;;;;;;4.00;4.00;;;;;;;;4996691;28;51028;-63
2022/04/03 12:06:08;;;;;;;;;3.33;3.33;;;;;;;;4996004;28;51193;-64
2022/04/03 12:08:40;;;;;;;;;4.00;4.00;;;;;;;;4995520;28;51143;-64
2022/04/03 12:11:24;;;;;;;;;5.33;5.00;;;;;;;;4995112;28;51941;-64
2022/04/03 12:13:57;;;;;;;;;8.00;7.00;;;;;;;;4996579;28;51044;-64
2022/04/03 12:16:33;;;;;;;;;3.00;3.00;;;;;;;;4999499;28;51241;-65
2022/04/03 12:19:02;;;;;;;;;3.00;3.00;;;;;;;;4997256;28;51159;-63
2022/04/03 12:21:40;;;;;;;;;4.00;4.00;;;;;;;;4996002;28;51877;-63
2022/04/03 12:24:07;;;;;;;;;5.00;5.00;;;;;;;;5008630;28;51103;-65
2022/04/03 12:26:32;;;;;;;;;6.50;6.50;;;;;;;;5009388;28;51140;-64
2022/04/03 12:28:58;;;;;;;;;5.00;4.67;;;;;;;;5011235;28;51127;-63
2022/04/03 12:31:26;;;;;;;;;5.50;5.25;;;;;;;;5011050;28;51083;-63
2022/04/03 12:34:02;;;;;;;;;5.75;5.25;;;;;;;;5011032;28;50984;-64
2022/04/03 12:36:34;;;;;;;;;5.33;5.33;;;;;;;;5010811;28;51072;-63
2022/04/03 12:38:59;;;;;;;;;8.75;6.00;;;;;;;;5010062;28;51631;-63
2022/04/03 12:41:26;;;;;;;;;6.75;5.75;;;;;;;;5010751;28;51870;-63
2022/04/03 12:43:55;;;;;;;;;7.75;7.00;;;;;;;;5009493;28;51119;-63
2022/04/03 12:46:20;;;;;;;;;5.75;5.50;;;;;;;;5010883;28;50992;-64
2022/04/03 12:48:49;;;;;;;;;4.50;4.50;;;;;;;;5011610;28;51407;-64
2022/04/03 12:51:15;;;;;;;;;3.50;3.50;;;;;;;;5010936;28;51774;-63
2022/04/03 12:53:51;;;;;;;;;5.00;5.00;;;;;;;;5010049;28;51006;-64
2022/04/03 12:56:16;;;;;;;;;6.00;6.00;;;;;;;;5010794;28;51016;-65
2022/04/03 12:58:43;;;;;;;;;5.00;5.00;;;;;;;;5011643;28;50881;-64
2022/04/03 13:01:16;;;;;;;;;6.75;5.00;;;;;;;;5010239;28;51813;-64
2022/04/03 13:03:41;;;;;;;;;5.00;5.00;;;;;;;;5009994;28;51006;-63
2022/04/03 13:06:08;;;;;;;;;5.00;5.00;;;;;;;;5011289;28;50941;-63
2022/04/03 13:08:44;;;;;;;;;5.33;5.00;;;;;;;;5010314;28;51064;-64
2022/04/03 13:11:09;;;;;;;;;6.00;5.00;;;;;;;;5010161;28;52952;-64
2022/04/03 13:13:36;;;;;;;;;5.75;5.75;;;;;;;;5004196;28;51561;-64
2022/04/03 13:16:01;;;;;;;;;6.00;6.00;;;;;;;;5010287;28;51224;-63
2022/04/03 13:18:26;;;;;;;;;6.00;6.00;;;;;;;;5024140;28;51176;-63
2022/04/03 13:20:53;;;;;;;;;6.00;6.00;;;;;;;;5006133;28;51341;-63
2022/04/03 13:23:18;;;;;;;;;6.50;6.25;;;;;;;;4997279;28;51415;-62
2022/04/03 13:25:44;;;;;;;;;7.25;7.25;;;;;;;;5007786;28;51113;-62
2022/04/03 13:28:10;;;;;;;;;6.00;6.00;;;;;;;;4998417;28;51266;-63
2022/04/03 13:30:35;;;;;;;;;7.00;6.25;;;;;;;;5008723;28;51821;-65
2022/04/03 13:33:01;;;;;;;;;6.00;5.75;;;;;;;;4998432;28;51104;-61
2022/04/03 13:35:26;;;;;;;;;6.25;6.25;;;;;;;;5012616;28;51511;-62
2022/04/03 13:37:51;;;;;;;;;5.00;5.00;;;;;;;;5010330;28;51058;-62
2022/04/03 13:40:17;;;;;;;;;6.00;6.00;;;;;;;;5013852;28;51896;-62
2022/04/03 13:42:43;;;;;;;;;5.50;5.00;;;;;;;;5004722;28;51200;-62
2022/04/03 13:45:08;;;;;;;;;8.25;7.00;;;;;;;;5003030;28;51051;-62
2022/04/03 13:47:33;;;;;;;;;5.00;5.00;;;;;;;;5004363;28;51409;-62
2022/04/03 13:49:59;;;;;;;;;9.00;7.25;;;;;;;;5011855;28;52403;-63
2022/04/03 13:52:24;;;;;;;;;7.00;7.00;;;;;;;;5003820;28;51038;-63
2022/04/03 13:54:49;;;;;;;;;7.00;6.75;;;;;;;;5012243;28;51113;-63
2022/04/03 13:57:14;;;;;;;;;6.25;6.25;;;;;;;;5011932;28;51139;-62
2022/04/03 13:59:40;;;;;;;;;6.00;6.00;;;;;;;;5011541;28;54121;-63
2022/04/03 14:02:05;;;;;;;;;9.75;7.00;;;;;;;;5021502;28;51062;-63
2022/04/03 14:04:31;;;;;;;;;6.75;6.50;;;;;;;;5010901;28;51151;-62
2022/04/03 14:06:56;;;;;;;;;6.00;6.00;;;;;;;;5009258;28;51084;-62
2022/04/03 14:09:21;;;;;;;;;6.00;5.75;;;;;;;;5008622;28;51954;-61
2022/04/03 14:11:46;;;;;;;;;9.00;8.25;;;;;;;;5023421;28;51427;-61
2022/04/03 14:14:12;;;;;;;;;5.25;5.25;;;;;;;;5009946;28;50961;-61
2022/04/03 14:16:38;;;;;;;;;7.25;6.75;;;;;;;;5011458;28;51117;-62
2022/04/03 14:19:03;;;;;;;;;6.00;6.00;;;;;;;;5009517;28;51007;-60
2022/04/03 14:21:29;;;;;;;;;10.00;10.00;;;;;;;;5006157;28;51130;-64
2022/04/03 14:23:55;;;;;;;;;4.00;4.00;;;;;;;;5009929;28;51457;-62